Time;durP1;ratioP1;P1;durP2;ratioP2;P2;SDS_P1;SDS_P2;PMS_P1;PMS_P2;Temp;Humidity;BMP_temperature;BMP_pressure;BME280_temperature;BME280_humidity;BME280_pressure;Samples;Min_cycle;Max_cycle;Signal;HPM_P1;HPM_P2
2021/08/19 00:01:38;;;;;;;11.30;7.63;;;;;;;13.85;92.03;99422.22;4994880;28;20396;-71
2021/08/19 00:04:04;;;;;;;10.13;7.25;;;;;;;13.84;92.14;99426.03;4994412;28;20495;-71
2021/08/19 00:06:29;;;;;;;8.43;7.10;;;;;;;13.88;92.10;99425.19;4994733;28;20034;-71
2021/08/19 00:08:55;;;;;;;10.77;8.27;;;;;;;13.82;92.10;99420.88;4994270;28;20207;-71
2021/08/19 00:11:20;;;;;;;13.75;7.93;;;;;;;13.76;92.59;99420.06;4994490;28;20034;-70
2021/08/19 00:13:46;;;;;;;13.13;7.72;;;;;;;13.76;92.61;99411.97;4994257;28;20459;-70
2021/08/19 00:16:11;;;;;;;15.20;7.85;;;;;;;13.76;92.42;99421.97;4994269;28;20038;-70
2021/08/19 00:18:38;;;;;;;9.55;7.07;;;;;;;13.78;92.40;99422.50;4994209;28;20030;-70
2021/08/19 00:21:05;;;;;;;8.55;7.15;;;;;;;13.81;91.91;99413.84;4994378;28;20042;-70
2021/08/19 00:23:31;;;;;;;10.57;7.03;;;;;;;13.76;92.61;99411.13;4994238;28;20463;-72
2021/08/19 00:25:56;;;;;;;10.98;7.85;;;;;;;13.79;92.52;99410.59;4994148;28;20069;-71
2021/08/19 00:28:22;;;;;;;14.48;8.50;;;;;;;13.75;92.48;99410.34;4994061;28;20066;-70
2021/08/19 00:30:48;;;;;;;11.50;7.95;;;;;;;13.72;92.81;99404.63;4994054;28;20117;-70
2021/08/19 00:33:14;;;;;;;15.48;8.90;;;;;;;13.66;92.86;99398.44;4994262;28;20050;-70
2021/08/19 00:35:40;;;;;;;16.17;9.27;;;;;;;13.68;92.82;99401.69;4976567;28;20506;-71
2021/08/19 00:38:05;;;;;;;13.85;9.93;;;;;;;13.69;92.89;99395.19;4994199;28;20071;-71
2021/08/19 00:40:32;;;;;;;18.23;9.50;;;;;;;13.62;93.21;99397.34;4994412;28;20092;-70
2021/08/19 00:43:05;;;;;;;16.60;9.70;;;;;;;13.57;93.32;99389.25;4993878;28;20070;-70
2021/08/19 00:45:34;;;;;;;13.05;9.43;;;;;;;13.60;93.72;99389.50;4994265;28;20405;-70
2021/08/19 00:47:59;;;;;;;14.63;9.63;;;;;;;13.52;93.72;99392.75;4993814;28;20042;-70
2021/08/19 00:50:25;;;;;;;14.38;9.52;;;;;;;13.57;93.69;99383.81;4994686;28;20050;-70
2021/08/19 00:52:51;;;;;;;15.65;9.18;;;;;;;13.50;93.76;99386.00;4993741;28;20034;-70
2021/08/19 00:55:17;;;;;;;16.40;9.43;;;;;;;13.50;93.72;99383.28;4993930;28;20030;-70
2021/08/19 00:57:47;;;;;;;13.02;9.10;;;;;;;13.42;93.71;99380.03;4993956;28;20033;-71
2021/08/19 01:00:14;;;;;;;15.05;7.38;;;;;;;13.43;93.90;99380.84;4993783;28;20054;-70
2021/08/19 01:02:46;;;;;;;9.30;6.68;;;;;;;13.39;93.86;99383.25;4993900;28;20034;-70
2021/08/19 01:05:17;;;;;;;14.80;7.78;;;;;;;13.40;93.80;99381.34;4993787;28;20034;-71
2021/08/19 01:07:46;;;;;;;12.45;7.20;;;;;;;13.36;93.84;99378.38;4975700;28;20062;-70
2021/08/19 01:10:12;;;;;;;12.45;8.23;;;;;;;13.36;94.13;99375.69;4993859;28;20369;-71
2021/08/19 01:12:40;;;;;;;15.45;8.70;;;;;;;13.41;94.26;99380.28;4993829;28;20538;-70
2021/08/19 01:15:06;;;;;;;11.85;8.77;;;;;;;13.44;94.02;99374.34;4993408;28;20030;-70
2021/08/19 01:17:32;;;;;;;14.10;11.20;;;;;;;13.46;93.83;99380.28;4993509;28;20100;-70
2021/08/19 01:19:59;;;;;;;17.10;11.65;;;;;;;13.48;93.82;99371.94;4993620;28;20476;-70
2021/08/19 01:22:25;;;;;;;19.95;12.82;;;;;;;13.47;94.03;99371.09;4993886;28;20065;-70
2021/08/19 01:24:51;;;;;;;15.65;11.75;;;;;;;13.49;93.65;99373.56;4993631;28;20034;-70
2021/08/19 01:27:17;;;;;;;16.85;11.05;;;;;;;13.54;93.34;99371.63;4993272;28;20159;-70
2021/08/19 01:29:45;;;;;;;15.48;10.10;;;;;;;13.52;93.67;99375.72;4992397;28;20034;-71
2021/08/19 01:32:11;;;;;;;12.38;9.35;;;;;;;13.54;93.59;99368.13;4993125;28;20391;-71
2021/08/19 01:34:37;;;;;;;10.90;8.55;;;;;;;13.51;93.90;99368.69;4993607;28;20116;-70
2021/08/19 01:37:05;;;;;;;13.75;8.20;;;;;;;13.51;93.98;99361.34;4993703;28;20026;-71
2021/08/19 01:39:30;;;;;;;8.48;6.63;;;;;;;13.58;94.07;99367.31;4993217;28;20038;-71
2021/08/19 01:41:56;;;;;;;9.55;6.43;;;;;;;13.53;93.58;99361.09;4993430;28;20043;-71
2021/08/19 01:44:22;;;;;;;13.30;8.10;;;;;;;13.48;94.09;99361.91;4993411;28;20035;-71
2021/08/19 01:47:02;;;;;;;10.13;7.65;;;;;;;13.57;93.78;99367.59;4993513;28;20050;-71
2021/08/19 01:49:29;;;;;;;11.07;8.05;;;;;;;13.52;93.84;99368.38;4993435;28;20038;-71
2021/08/19 01:51:55;;;;;;;12.95;8.45;;;;;;;13.57;93.77;99362.19;4993400;28;20046;-71
2021/08/19 01:54:25;;;;;;;13.45;9.57;;;;;;;13.52;93.61;99365.69;4992998;28;20022;-71
2021/08/19 01:56:51;;;;;;;15.88;8.38;;;;;;;13.56;93.76;99372.19;4993222;28;20567;-71
2021/08/19 01:59:17;;;;;;;13.50;9.23;;;;;;;13.56;93.50;99374.09;4992928;28;20129;-71
2021/08/19 02:01:43;;;;;;;16.25;9.73;;;;;;;13.65;93.24;99366.22;4993891;28;20034;-71
2021/08/19 02:04:09;;;;;;;14.35;9.10;;;;;;;13.60;93.35;99380.56;4993071;28;20042;-71
2021/08/19 02:06:34;;;;;;;14.23;9.43;;;;;;;13.63;92.92;99371.91;4992987;28;20034;-71
2021/08/19 02:09:02;;;;;;;11.07;6.65;;;;;;;13.71;92.17;99370.53;4992758;28;20539;-71
2021/08/19 02:11:27;;;;;;;9.75;6.43;;;;;;;13.64;92.76;99365.41;4993057;28;20126;-71
2021/08/19 02:13:53;;;;;;;9.02;5.32;;;;;;;13.63;92.29;99369.22;4992958;28;20054;-71
2021/08/19 02:16:19;;;;;;;7.63;5.60;;;;;;;13.60;92.69;99365.13;4993138;28;20054;-73
2021/08/19 02:18:44;;;;;;;6.20;4.72;;;;;;;13.58;92.51;99361.09;4993766;28;20088;-72
2021/08/19 02:21:10;;;;;;;9.93;5.30;;;;;;;13.59;92.61;99352.69;4996670;28;20042;-72
2021/08/19 02:23:35;;;;;;;8.15;4.30;;;;;;;13.61;92.23;99353.22;4997074;28;20042;-72
2021/08/19 02:26:01;;;;;;;12.20;4.47;;;;;;;13.56;92.41;99360.56;4996296;28;20038;-72
2021/08/19 02:28:27;;;;;;;7.82;5.13;;;;;;;13.59;92.49;99354.59;4997060;28;20050;-72
2021/08/19 02:30:53;;;;;;;7.13;4.22;;;;;;;13.61;92.59;99357.84;4996372;28;20088;-72
2021/08/19 02:33:18;;;;;;;6.45;4.28;;;;;;;13.66;92.16;99357.84;4996283;28;20039;-72
2021/08/19 02:35:44;;;;;;;12.38;6.85;;;;;;;13.64;92.50;99357.31;4996473;28;20034;-72
2021/08/19 02:38:10;;;;;;;8.18;5.75;;;;;;;13.60;92.07;99346.19;4996261;28;20034;-72
2021/08/19 02:40:36;;;;;;;11.27;6.18;;;;;;;13.57;92.87;99345.94;4997115;28;20117;-72
2021/08/19 02:43:03;;;;;;;9.77;5.53;;;;;;;13.55;92.54;99343.50;4996272;28;20480;-73
2021/08/19 02:45:29;;;;;;;6.97;4.70;;;;;;;13.52;92.84;99341.34;4995863;28;20030;-72
2021/08/19 02:47:54;;;;;;;9.20;5.38;;;;;;;13.57;92.75;99338.63;4995740;28;20036;-72
2021/08/19 02:50:20;;;;;;;9.52;6.20;;;;;;;13.49;92.82;99339.19;4996352;28;20477;-73
2021/08/19 02:52:46;;;;;;;11.98;6.95;;;;;;;13.46;92.99;99345.94;4995847;28;20532;-72
2021/08/19 02:55:11;;;;;;;11.68;6.78;;;;;;;13.49;92.65;99346.50;4995866;28;20034;-72
2021/08/19 02:57:37;;;;;;;12.38;6.03;;;;;;;13.44;92.91;99342.72;4995915;28;20077;-73
2021/08/19 03:00:04;;;;;;;10.10;5.20;;;;;;;13.48;93.25;99339.47;4995669;28;20053;-72
2021/08/19 03:02:29;;;;;;;9.75;5.30;;;;;;;13.45;92.91;99343.50;4995950;28;20125;-72
2021/08/19 03:04:55;;;;;;;8.70;4.53;;;;;;;13.46;92.88;99339.72;4995711;28;20488;-72
2021/08/19 03:07:21;;;;;;;5.97;4.32;;;;;;;13.46;93.17;99335.13;4996141;28;20053;-73
2021/08/19 03:09:46;;;;;;;7.50;4.85;;;;;;;13.43;93.11;99335.69;4995691;28;20053;-72
2021/08/19 03:12:12;;;;;;;6.95;5.22;;;;;;;13.39;93.36;99336.44;4995898;28;20038;-72
2021/08/19 03:14:37;;;;;;;9.80;5.38;;;;;;;13.39;93.14;99329.16;4994322;28;20117;-72
2021/08/19 03:17:04;;;;;;;7.38;5.40;;;;;;;13.29;93.30;99324.56;4995795;28;20038;-72
2021/08/19 03:19:30;;;;;;;6.38;4.90;;;;;;;13.25;93.27;99330.75;4995545;28;20443;-72
2021/08/19 03:21:56;;;;;;;7.47;5.82;;;;;;;13.11;93.89;99335.91;4995450;28;20035;-72
2021/08/19 03:24:21;;;;;;;9.68;6.22;;;;;;;13.11;94.06;99328.59;4994923;28;20062;-72
2021/08/19 03:26:47;;;;;;;8.80;6.80;;;;;;;13.05;94.10;99321.56;4995889;28;20087;-72
2021/08/19 03:29:12;;;;;;;8.07;6.40;;;;;;;13.01;94.48;99331.28;4977848;28;20103;-72
2021/08/19 03:31:38;;;;;;;7.45;6.05;;;;;;;12.96;94.56;99326.69;4995402;28;20116;-72
2021/08/19 03:34:03;;;;;;;7.20;5.97;;;;;;;12.93;94.82;99326.41;4995401;28;20476;-72
2021/08/19 03:36:29;;;;;;;8.73;6.45;;;;;;;12.92;94.96;99330.19;4995009;28;20113;-72
2021/08/19 03:38:55;;;;;;;8.70;7.00;;;;;;;12.92;95.10;99330.19;4995314;28;20062;-72
2021/08/19 03:41:21;;;;;;;6.50;5.80;;;;;;;12.99;94.89;99334.28;4994905;28;20125;-72
2021/08/19 03:43:47;;;;;;;6.93;5.70;;;;;;;13.08;94.44;99329.13;4994969;28;20042;-72
2021/08/19 03:46:14;;;;;;;6.20;5.60;;;;;;;13.17;93.88;99319.41;4995038;28;20030;-72
2021/08/19 03:48:40;;;;;;;8.90;6.22;;;;;;;13.16;93.66;99322.38;4994999;28;20125;-72
2021/08/19 03:51:05;;;;;;;7.20;5.97;;;;;;;13.20;93.72;99330.75;4994850;28;20080;-72
2021/08/19 03:53:31;;;;;;;7.53;5.05;;;;;;;13.34;92.54;99315.63;4994960;28;20031;-71
2021/08/19 03:55:57;;;;;;;6.28;5.35;;;;;;;13.38;92.40;99319.41;4995590;28;20046;-71
2021/08/19 03:58:22;;;;;;;5.80;4.88;;;;;;;13.42;92.11;99325.13;4994590;28;20408;-71
2021/08/19 04:00:50;;;;;;;5.10;4.60;;;;;;;13.44;91.88;99329.19;4994841;28;20038;-71
2021/08/19 04:03:16;;;;;;;7.57;4.68;;;;;;;13.42;91.91;99323.25;4994727;28;20069;-71
2021/08/19 04:05:42;;;;;;;5.93;4.95;;;;;;;13.43;91.92;99316.75;4994604;28;20054;-71
2021/08/19 04:08:08;;;;;;;7.93;6.18;;;;;;;13.51;91.35;99320.78;4994306;28;20129;-71
2021/08/19 04:10:34;;;;;;;7.57;6.20;;;;;;;13.51;91.41;99322.69;4994807;28;20396;-72
2021/08/19 04:12:59;;;;;;;14.13;9.43;;;;;;;13.53;90.89;99320.53;4994372;28;20117;-72
2021/08/19 04:15:25;;;;;;;13.15;8.95;;;;;;;13.51;90.84;99319.97;4994505;28;20038;-72
2021/08/19 04:17:54;;;;;;;16.10;9.45;;;;;;;13.50;91.10;99310.25;4994449;28;20045;-71
2021/08/19 04:20:22;;;;;;;15.70;10.05;;;;;;;13.48;90.91;99317.81;4993146;28;20042;-71
2021/08/19 04:22:50;;;;;;;16.00;10.95;;;;;;;13.47;90.88;99317.00;4994570;28;20443;-72
2021/08/19 04:25:15;;;;;;;19.33;11.15;;;;;;;13.44;91.08;99312.97;4994303;28;20480;-71
2021/08/19 04:27:41;;;;;;;18.08;11.80;;;;;;;13.39;91.14;99320.22;4994111;28;20030;-72
2021/08/19 04:30:08;;;;;;;15.75;10.80;;;;;;;13.45;90.63;99308.34;4994371;28;20109;-72
2021/08/19 04:32:35;;;;;;;13.85;9.95;;;;;;;13.41;91.17;99313.47;4994390;28;20041;-71
2021/08/19 04:35:00;;;;;;;13.95;11.10;;;;;;;13.31;91.27;99311.56;4994342;28;20073;-71
2021/08/19 04:37:27;;;;;;;15.40;10.57;;;;;;;13.34;90.91;99315.63;4993859;28;20488;-71
2021/08/19 04:39:52;;;;;;;13.02;9.65;;;;;;;13.35;90.55;99316.44;4994231;28;20081;-71
2021/08/19 04:42:18;;;;;;;10.00;8.57;;;;;;;13.31;90.84;99310.78;4993497;28;20084;-71
2021/08/19 04:44:44;;;;;;;11.43;8.35;;;;;;;13.29;90.22;99311.03;4994114;28;20392;-71
2021/08/19 04:47:09;;;;;;;12.57;7.65;;;;;;;13.27;90.15;99305.06;4994169;28;20554;-71
2021/08/19 04:49:35;;;;;;;12.50;7.13;;;;;;;13.34;89.75;99302.13;4993976;28;20483;-71
2021/08/19 04:52:00;;;;;;;11.25;6.82;;;;;;;13.28;89.70;99311.31;4993893;28;20031;-71
2021/08/19 04:54:26;;;;;;;11.32;5.70;;;;;;;13.27;88.61;99307.78;4993930;28;20046;-72
2021/08/19 04:56:52;;;;;;;12.40;6.25;;;;;;;13.25;88.23;99315.34;4994050;28;20100;-71
2021/08/19 04:59:17;;;;;;;14.30;5.55;;;;;;;13.27;87.57;99312.41;4994156;28;20082;-71
2021/08/19 05:01:43;;;;;;;10.13;6.00;;;;;;;13.31;87.17;99306.16;4994318;28;20074;-71
2021/08/19 05:04:08;;;;;;;18.55;6.00;;;;;;;13.30;87.10;99309.94;4993927;28;20042;-71
2021/08/19 05:06:35;;;;;;;10.02;5.57;;;;;;;13.39;86.72;99306.69;4993738;28;20038;-72
2021/08/19 05:09:04;;;;;;;9.95;6.47;;;;;;;13.33;86.93;99312.09;4993499;28;20042;-71
2021/08/19 05:11:30;;;;;;;10.95;6.97;;;;;;;13.37;86.37;99306.97;4993794;28;20042;-72
2021/08/19 05:13:59;;;;;;;11.48;7.65;;;;;;;13.42;86.35;99308.88;4993748;28;20105;-71
2021/08/19 05:16:27;;;;;;;13.93;8.48;;;;;;;13.39;86.14;99295.88;4993859;28;20049;-71
2021/08/19 05:18:53;;;;;;;12.50;9.32;;;;;;;13.40;86.30;99306.44;4993279;28;20030;-71
2021/08/19 05:21:19;;;;;;;14.55;7.65;;;;;;;13.47;85.68;99306.16;4994127;28;20550;-71
2021/08/19 05:23:45;;;;;;;13.80;7.43;;;;;;;13.44;86.26;99304.00;4993624;28;20066;-71
2021/08/19 05:26:10;;;;;;;18.20;9.05;;;;;;;13.46;85.89;99302.66;4993763;28;20042;-71
2021/08/19 05:28:36;;;;;;;20.25;13.18;;;;;;;13.49;85.68;99309.41;4993394;28;20073;-72
2021/08/19 05:31:01;;;;;;;28.25;18.08;;;;;;;13.49;85.84;99309.41;4993465;28;20062;-72
2021/08/19 05:33:28;;;;;;;33.22;21.50;;;;;;;13.46;85.64;99308.09;4993340;28;20492;-71
2021/08/19 05:35:53;;;;;;;34.30;18.02;;;;;;;13.50;85.88;99307.53;4993288;28;20042;-71
2021/08/19 05:38:19;;;;;;;19.85;13.27;;;;;;;13.48;85.96;99307.78;4993374;28;20042;-71
2021/08/19 05:40:44;;;;;;;15.93;11.80;;;;;;;13.51;85.63;99306.44;4993080;28;20038;-72
2021/08/19 05:43:13;;;;;;;15.18;12.82;;;;;;;13.49;85.29;99316.75;4993683;28;20050;-71
2021/08/19 05:45:40;;;;;;;19.08;13.85;;;;;;;13.50;85.69;99310.25;4993449;28;20105;-71
2021/08/19 05:48:06;;;;;;;20.65;14.20;;;;;;;13.50;85.44;99310.25;4993481;28;20042;-71
2021/08/19 05:50:33;;;;;;;19.20;14.38;;;;;;;13.46;85.75;99323.50;4976033;28;20039;-71
2021/08/19 05:52:59;;;;;;;20.33;14.13;;;;;;;13.43;85.71;99322.16;4993102;28;20050;-71
2021/08/19 05:55:25;;;;;;;16.77;12.50;;;;;;;13.50;85.55;99327.28;4996482;28;20473;-71
2021/08/19 05:57:53;;;;;;;23.02;12.82;;;;;;;13.50;85.40;99315.66;4996910;28;20097;-71
2021/08/19 06:00:23;;;;;;;14.48;12.45;;;;;;;13.49;85.56;99319.44;4996985;28;20113;-71
2021/08/19 06:02:49;;;;;;;16.60;12.77;;;;;;;13.43;85.70;99311.34;4997145;28;20050;-71
2021/08/19 06:05:15;;;;;;;22.20;12.73;;;;;;;13.52;85.66;99308.88;4996590;28;20568;-72
2021/08/19 06:07:41;;;;;;;18.25;12.15;;;;;;;13.57;85.01;99313.47;4996561;28;20121;-71
2021/08/19 06:10:07;;;;;;;16.50;12.10;;;;;;;13.65;84.35;99302.09;4996961;28;20034;-71
2021/08/19 06:12:33;;;;;;;19.00;12.40;;;;;;;13.67;84.52;99307.22;4996653;28;20066;-72
2021/08/19 06:14:58;;;;;;;14.32;10.68;;;;;;;13.69;84.52;99314.00;4997534;28;20059;-69
2021/08/19 06:17:25;;;;;;;18.33;10.45;;;;;;;13.79;83.99;99312.34;4996317;28;20484;-70
2021/08/19 06:19:50;;;;;;;12.93;9.77;;;;;;;13.84;82.90;99313.13;4996514;28;20080;-72
2021/08/19 06:22:16;;;;;;;14.85;9.93;;;;;;;13.81;83.61;99310.97;4996283;28;20515;-71
2021/08/19 06:24:41;;;;;;;14.25;9.68;;;;;;;13.80;83.46;99312.06;4996799;28;20038;-72
2021/08/19 06:27:07;;;;;;;10.63;8.48;;;;;;;13.87;82.98;99307.16;4996652;28;20035;-72
2021/08/19 06:29:32;;;;;;;11.13;8.40;;;;;;;13.97;82.50;99308.22;4996427;28;20061;-72
2021/08/19 06:31:57;;;;;;;13.95;8.80;;;;;;;14.20;81.41;99323.88;4996591;28;20464;-71
2021/08/19 06:34:23;;;;;;;13.38;8.60;;;;;;;14.17;81.13;99323.59;4996442;28;20161;-72
2021/08/19 06:36:48;;;;;;;11.18;8.27;;;;;;;14.28;80.70;99311.63;4996352;28;20101;-71
2021/08/19 06:39:14;;;;;;;13.15;7.75;;;;;;;14.29;81.27;99318.66;4995926;28;20392;-72
2021/08/19 06:41:40;;;;;;;12.18;8.18;;;;;;;14.53;80.29;99315.31;4996172;28;20035;-72
2021/08/19 06:44:05;;;;;;;12.90;8.50;;;;;;;14.37;80.67;99311.88;4996203;28;20044;-72
2021/08/19 06:46:31;;;;;;;16.15;9.07;;;;;;;14.38;80.97;99315.38;4996792;28;20034;-71
2021/08/19 06:48:56;;;;;;;11.68;8.25;;;;;;;14.45;80.54;99318.59;4996063;28;20376;-71
2021/08/19 06:51:21;;;;;;;17.80;10.52;;;;;;;14.31;81.00;99305.66;4996021;28;20494;-71
2021/08/19 06:53:47;;;;;;;13.27;10.00;;;;;;;14.38;80.64;99318.09;4996382;28;20226;-72
2021/08/19 07:00:00;;;;;;;12.80;8.73;;;;;;;14.48;80.83;99318.88;4995806;28;20542;-71
2021/08/19 07:02:26;;;;;;;14.27;9.00;;;;;;;14.51;80.05;99311.28;4995763;28;20058;-71
2021/08/19 07:04:51;;;;;;;11.30;8.57;;;;;;;14.44;80.54;99304.25;4995542;28;20080;-72
2021/08/19 07:07:17;;;;;;;10.27;8.10;;;;;;;14.53;79.64;99309.09;4995437;28;20121;-72
2021/08/19 07:13:50;;;;;;;14.48;10.15;;;;;;;14.50;79.12;99310.44;4995827;28;20057;-71
2021/08/19 07:16:15;;;;;;;16.60;11.57;;;;;;;14.46;78.85;99309.38;4995770;28;20046;-72
2021/08/19 07:18:41;;;;;;;13.85;10.65;;;;;;;14.49;79.18;99298.00;4995300;28;20435;-72
2021/08/19 07:24:59;;;;;;;11.63;6.97;;;;;;;14.66;77.91;99300.34;4995411;28;20101;-72
2021/08/19 07:27:25;;;;;;;8.88;5.80;;;;;;;14.88;77.04;99310.78;4995667;28;20038;-72
2021/08/19 07:29:50;;;;;;;9.35;4.78;;;;;;;14.99;76.21;99297.97;4995448;28;20444;-71
2021/08/19 07:32:19;;;;;;;6.63;4.63;;;;;;;15.33;75.34;99307.19;4995409;28;20399;-72
2021/08/19 07:38:32;;;;;;;10.30;4.78;;;;;;;15.73;71.88;99307.06;4995364;28;20044;-71
2021/08/19 07:40:57;;;;;;;6.40;4.10;;;;;;;15.80;71.50;99310.25;4995245;28;20042;-71
2021/08/19 07:43:23;;;;;;;6.13;3.75;;;;;;;15.71;70.80;99307.38;4995166;28;20053;-71
2021/08/19 07:45:48;;;;;;;6.82;4.05;;;;;;;15.63;69.72;99308.00;4994937;28;20458;-72
2021/08/19 07:48:14;;;;;;;4.60;3.75;;;;;;;15.49;69.11;99303.25;4994843;28;20038;-72
2021/08/19 07:50:41;;;;;;;6.03;3.80;;;;;;;15.47;68.39;99310.88;4995125;28;20204;-71
2021/08/19 07:53:07;;;;;;;5.50;3.88;;;;;;;15.37;68.13;99313.69;4994803;28;20034;-71
2021/08/19 07:55:33;;;;;;;7.78;4.00;;;;;;;15.34;67.62;99314.25;4994960;28;20038;-71
2021/08/19 07:57:58;;;;;;;6.70;4.22;;;;;;;15.35;67.39;99313.16;4994942;28;20049;-71
2021/08/19 08:00:30;;;;;;;7.20;3.85;;;;;;;15.56;66.37;99302.91;4994252;28;20062;-72
2021/08/19 08:02:56;;;;;;;6.72;3.80;;;;;;;15.57;64.78;99315.38;4994658;28;20073;-72
2021/08/19 08:05:23;;;;;;;6.32;3.75;;;;;;;15.70;64.49;99313.91;4994376;28;20114;-72
2021/08/19 08:07:50;;;;;;;6.78;4.00;;;;;;;15.87;63.87;99318.06;4994582;28;20511;-71
2021/08/19 08:10:15;;;;;;;11.55;4.13;;;;;;;16.07;63.27;99314.38;4994405;28;20026;-71
2021/08/19 08:12:41;;;;;;;8.32;4.18;;;;;;;16.29;61.94;99319.25;4994414;28;20040;-72
2021/08/19 08:15:08;;;;;;;11.75;4.38;;;;;;;16.29;61.20;99316.53;4994504;28;20045;-72
2021/08/19 08:17:35;;;;;;;6.13;4.13;;;;;;;16.37;61.64;99317.78;4976399;28;20046;-71
2021/08/19 08:20:01;;;;;;;11.50;4.28;;;;;;;16.36;61.27;99314.25;4994320;28;20049;-72
2021/08/19 08:22:26;;;;;;;7.93;4.20;;;;;;;16.38;62.04;99311.25;4994114;28;20121;-72
2021/08/19 08:24:52;;;;;;;7.75;3.90;;;;;;;16.44;61.84;99326.41;4994285;28;20035;-72
2021/08/19 08:27:18;;;;;;;5.45;4.07;;;;;;;16.31;61.51;99319.75;4994356;28;20038;-72
2021/08/19 08:29:43;;;;;;;6.13;4.25;;;;;;;16.40;59.44;99328.09;4994356;28;20045;-71
2021/08/19 08:32:10;;;;;;;6.68;4.30;;;;;;;16.44;59.65;99323.69;4994071;28;20039;-71
2021/08/19 08:34:40;;;;;;;11.88;4.57;;;;;;;16.41;60.29;99316.13;4994063;28;20042;-72
2021/08/19 08:37:06;;;;;;;5.65;4.05;;;;;;;16.49;59.52;99320.91;4993991;28;20380;-72
2021/08/19 08:39:36;;;;;;;7.10;4.18;;;;;;;16.29;59.49;99330.09;4976368;28;20042;-71
2021/08/19 08:42:06;;;;;;;8.32;4.57;;;;;;;16.12;61.63;99325.16;4994187;28;20046;-72
2021/08/19 08:44:33;;;;;;;5.68;4.07;;;;;;;15.99;61.59;99323.94;4994111;28;20030;-71
2021/08/19 08:47:00;;;;;;;7.53;4.25;;;;;;;15.98;61.45;99327.75;4993976;28;20034;-71
2021/08/19 08:49:26;;;;;;;7.13;4.28;;;;;;;15.92;62.00;99321.59;4993696;28;20566;-72
2021/08/19 08:51:56;;;;;;;8.20;4.18;;;;;;;15.95;63.31;99325.63;4994020;28;20121;-72
2021/08/19 08:54:22;;;;;;;6.80;4.30;;;;;;;16.07;61.89;99327.94;4993643;28;20034;-72
2021/08/19 08:56:48;;;;;;;12.85;4.32;;;;;;;16.02;61.20;99322.56;4993926;28;20098;-72
2021/08/19 08:59:14;;;;;;;6.53;4.40;;;;;;;16.13;60.50;99325.97;4993949;28;20106;-71
2021/08/19 09:01:39;;;;;;;6.50;4.72;;;;;;;16.17;61.59;99319.66;4993530;28;20481;-71
2021/08/19 09:04:06;;;;;;;12.10;5.03;;;;;;;16.26;61.89;99327.97;4993710;28;20037;-71
2021/08/19 09:06:34;;;;;;;7.57;4.90;;;;;;;16.38;61.71;99317.50;4993620;28;20472;-72
2021/08/19 09:09:13;;;;;;;10.93;4.88;;;;;;;16.58;60.95;99323.75;4993575;28;20109;-71
2021/08/19 09:11:43;;;;;;;7.10;4.43;;;;;;;16.66;60.00;99325.03;4993768;28;20042;-72
2021/08/19 09:14:16;;;;;;;7.55;4.55;;;;;;;16.69;59.48;99321.72;4993856;28;20038;-72
2021/08/19 09:16:46;;;;;;;;;;;;;;;16.57;60.01;99330.28;4994158;28;20113;-72
2021/08/19 09:19:12;;;;;;;5.22;3.88;;;;;;;16.60;59.77;99321.56;4993416;28;20008;-72
2021/08/19 09:21:49;;;;;;;8.70;4.55;;;;;;;16.56;59.59;99334.09;4993705;28;20118;-72
2021/08/19 09:24:16;;;;;;;5.50;4.07;;;;;;;16.54;59.91;99333.59;4993699;28;20034;-71
2021/08/19 09:26:43;;;;;;;6.82;4.45;;;;;;;16.58;59.37;99340.06;4993787;28;20085;-72
2021/08/19 09:29:24;;;;;;;8.52;4.18;;;;;;;16.66;61.12;99335.91;4996787;28;20038;-72
2021/08/19 09:31:52;;;;;;;10.52;4.35;;;;;;;16.84;59.96;99342.47;4997767;28;20396;-71
2021/08/19 09:34:18;;;;;;;8.82;4.10;;;;;;;17.01;59.36;99335.72;4997366;28;20391;-72
2021/08/19 09:36:44;;;;;;;6.60;4.15;;;;;;;17.24;59.27;99339.41;4997250;28;20488;-72
2021/08/19 09:39:10;;;;;;;7.70;3.60;;;;;;;17.22;59.74;99333.47;4997388;28;20038;-72
2021/08/19 09:41:53;;;;;;;9.07;3.90;;;;;;;17.38;56.76;99332.09;4997461;28;20038;-72
2021/08/19 09:44:30;;;;;;;7.70;3.53;;;;;;;17.54;57.05;99332.66;4997021;28;20549;-72
2021/08/19 09:46:56;;;;;;;4.93;3.35;;;;;;;17.73;57.35;99331.78;4997730;28;20504;-72
2021/08/19 09:49:30;;;;;;;5.50;3.25;;;;;;;17.93;56.72;99316.97;4997278;28;20049;-72
2021/08/19 09:52:13;;;;;;;;;;;;;;;18.00;56.87;99324.75;4997859;28;20447;-72
2021/08/19 09:54:41;;;;;;;5.40;3.40;;;;;;;18.18;56.76;99323.06;4997338;28;19967;-72
2021/08/19 09:57:08;;;;;;;4.95;3.30;;;;;;;18.16;56.75;99321.72;4996987;28;20480;-72
2021/08/19 09:59:38;;;;;;;8.25;3.38;;;;;;;18.28;56.56;99314.66;4997148;28;20038;-72
2021/08/19 10:02:06;;;;;;;7.18;3.25;;;;;;;18.37;57.13;99313.94;4997187;28;20062;-72
2021/08/19 10:04:33;;;;;;;6.70;3.85;;;;;;;18.25;56.77;99322.63;4979409;28;20034;-72
2021/08/19 10:06:59;;;;;;;5.03;3.20;;;;;;;18.23;56.10;99324.84;4996511;28;20026;-70
2021/08/19 10:09:25;;;;;;;5.82;3.17;;;;;;;18.38;55.83;99312.84;4997073;28;20034;-72
2021/08/19 10:11:53;;;;;;;6.20;3.42;;;;;;;18.63;56.01;99307.94;4997368;28;20045;-72
2021/08/19 10:14:25;;;;;;;7.40;3.05;;;;;;;18.92;55.34;99317.66;4996684;28;20085;-72
2021/08/19 10:20:54;;;;;;;5.65;3.28;;;;;;;18.81;54.92;99309.69;4996520;28;20049;-72
2021/08/19 10:23:21;;;;;;;4.63;3.00;;;;;;;18.80;54.82;99299.09;4996803;28;20045;-71
2021/08/19 10:26:00;;;;;;;7.22;3.38;;;;;;;18.67;55.41;99306.22;4996613;28;20137;-72
2021/08/19 10:28:25;;;;;;;8.25;3.35;;;;;;;18.58;56.59;99304.22;4996783;28;20109;-72
2021/08/19 10:35:08;;;;;;;4.30;3.13;;;;;;;17.99;59.27;99304.03;4996619;28;20578;-71
2021/08/19 10:37:46;;;;;;;12.50;3.10;;;;;;;18.19;58.38;99297.41;4996289;28;20034;-72
2021/08/19 10:40:21;;;;;;;5.15;3.50;;;;;;;18.34;59.00;99309.91;4995616;28;20396;-72
2021/08/19 10:42:54;;;;;;;10.20;3.80;;;;;;;18.38;58.91;99305.44;4996950;28;20479;-72
2021/08/19 10:45:28;;;;;;;9.02;3.60;;;;;;;18.14;59.02;99308.44;4996209;28;20034;-72
2021/08/19 10:48:15;;;;;;;7.05;3.47;;;;;;;17.87;60.33;99301.84;4996340;28;20037;-72
2021/08/19 10:50:45;;;;;;;11.63;4.18;;;;;;;17.94;59.68;99296.78;4985532;28;20064;-72
2021/08/19 10:53:15;;;;;;;7.05;3.40;;;;;;;18.10;59.53;99297.31;4996260;28;20476;-72
2021/08/19 10:55:43;;;;;;;6.07;3.97;;;;;;;18.08;59.08;99294.09;4996390;28;20031;-71
2021/08/19 10:58:29;;;;;;;4.63;3.20;;;;;;;18.22;59.45;99294.09;4996180;28;20046;-71
2021/08/19 11:01:12;;;;;;;10.27;3.20;;;;;;;18.52;57.54;99291.81;4995848;28;20550;-71
2021/08/19 11:03:38;;;;;;;7.35;4.05;;;;;;;18.38;58.80;99294.53;4996017;28;20405;-72
2021/08/19 11:06:05;;;;;;;4.53;3.20;;;;;;;18.45;58.62;99299.59;4995837;28;20038;-72
2021/08/19 11:08:46;;;;;;;6.75;3.42;;;;;;;18.49;58.69;99292.41;4995514;28;20046;-72
2021/08/19 11:11:25;;;;;;;6.97;3.22;;;;;;;18.53;58.73;99298.06;4995686;28;20495;-72
2021/08/19 11:13:57;;;;;;;3.88;2.95;;;;;;;18.41;58.99;99299.38;4995900;28;20034;-72
2021/08/19 11:16:24;;;;;;;6.90;2.60;;;;;;;18.25;59.63;99303.56;4995907;28;20107;-71
2021/08/19 11:18:49;;;;;;;6.00;3.30;;;;;;;18.37;59.35;99309.28;4995422;28;20495;-72
2021/08/19 11:21:15;;;;;;;6.20;3.47;;;;;;;18.27;59.01;99304.06;4995670;28;20600;-71
2021/08/19 11:27:27;;;;;;;5.75;2.92;;;;;;;18.63;58.54;99297.03;4995520;28;20428;-71
2021/08/19 11:29:53;;;;;;;7.13;2.80;;;;;;;18.46;59.65;99306.66;4995454;28;20506;-72
2021/08/19 11:32:23;;;;;;;4.80;3.03;;;;;;;18.41;60.01;99304.84;4995419;28;20041;-72
2021/08/19 11:34:51;;;;;;;9.77;2.97;;;;;;;18.56;60.52;99298.25;4995451;28;20042;-72
2021/08/19 11:37:25;;;;;;;4.25;2.80;;;;;;;18.81;59.47;99298.78;4995117;28;20484;-72
2021/08/19 11:43:42;;;;;;;4.20;2.55;;;;;;;19.00;59.49;99303.28;4995262;28;20089;-71
2021/08/19 11:46:20;;;;;;;7.88;3.00;;;;;;;18.85;60.04;99307.97;4995666;28;20053;-71
2021/08/19 11:48:52;;;;;;;4.55;2.58;;;;;;;19.37;59.47;99292.28;4995165;28;20058;-71
2021/08/19 11:51:22;;;;;;;5.47;3.10;;;;;;;19.33;60.70;99303.03;4993778;28;20608;-72
2021/08/19 11:53:53;;;;;;;3.90;2.72;;;;;;;18.99;60.53;99298.94;4994763;28;20499;-72
2021/08/19 11:56:19;;;;;;;5.40;2.53;;;;;;;18.95;60.50;99312.38;4995419;28;20044;-72
2021/08/19 11:58:45;;;;;;;3.85;2.20;;;;;;;19.04;60.81;99301.56;4994737;28;20030;-72
2021/08/19 12:01:11;;;;;;;5.75;2.60;;;;;;;18.80;60.43;99308.09;4995000;28;20089;-71